Date,TemperatureHighF,TemperatureAvgF,TemperatureLowF,DewpointHighF,DewpointAvgF,DewpointLowF,HumidityHigh,HumidityAvg,HumidityLow,PressureMaxIn,PressureMinIn,WindSpeedMaxMPH,WindSpeedAvgMPH,GustSpeedMaxMPH,PrecipitationSumIn
2013-12-1,55.6,42.7,29.8,41.3,35.8,28.0,94,78,52,30.17,29.94,1,0,7,0.00
2013-12-2,49.4,42.2,36.3,44.2,39.5,33.0,96,90,81,29.94,29.67,8,2,16,0.00
2013-12-3,60.9,47.7,36.5,51.8,44.3,35.1,97,89,68,29.67,29.56,7,1,16,0.01
2013-12-4,51.3,39.8,25.2,50.0,37.1,18.7,96,90,76,30.05,29.55,13,5,26,0.00
2013-12-5,25.1,20.4,18.6,18.6,11.7,9.1,81,69,62,30.46,30.05,15,7,28,0.00
2013-12-6,19.0,16.3,11.9,9.1,4.2,1.5,66,59,48,30.75,30.45,12,7,23,0.00
2013-12-7,21.7,14.5,5.5,7.5,4.6,0.8,82,65,49,30.83,30.51,7,2,15,0.00
2013-12-8,24.3,21.7,19.3,22.5,16.8,7.4,93,82,58,30.51,30.08,6,2,16,0.00
2013-12-9,21.3,14.5,11.4,19.3,9.4,5.0,92,80,69,30.48,30.24,8,2,19,0.00
2013-12-10,37.2,23.7,11.1,21.2,13.8,4.4,76,66,49,30.42,30.31,11,3,22,0.01
2013-12-11,25.4,20.7,10.1,20.4,11.1,2.8,85,67,46,30.73,30.32,14,4,25,0.01
2013-12-12,45.6,27.8,10.3,25.2,15.0,3.4,77,60,36,30.69,30.27,10,3,21,0.00
2013-12-13,35.9,32.9,27.1,34.3,29.8,22.2,95,88,74,30.26,29.95,8,2,14,0.75
2013-12-14,33.2,28.0,21.5,31.9,25.3,17.6,96,90,82,30.30,29.94,13,7,25,0.01
2013-12-15,42.8,31.9,20.7,34.3,26.5,17.3,89,81,67,30.29,30.03,10,1,18,0.01
2013-12-16,43.8,32.3,25.5,38.3,29.3,23.8,95,89,77,30.23,30.01,7,0,15,0.01
2013-12-17,45.9,36.0,28.2,34.5,27.8,20.9,91,73,51,30.34,30.22,12,2,21,0.00
2013-12-18,59.5,44.2,28.3,41.5,32.7,21.8,79,65,50,30.31,29.86,12,5,31,0.00
2013-12-19,57.2,52.7,48.0,50.7,46.2,38.6,87,79,67,29.87,29.70,8,3,19,0.00
2013-12-20,54.4,31.9,24.2,51.0,29.7,21.8,94,91,86,29.99,29.68,12,5,20,0.00
2013-12-21,29.2,27.1,24.2,27.5,25.0,21.7,94,92,90,29.97,29.67,10,3,20,0.00
2013-12-22,28.6,23.5,14.4,27.1,20.7,11.2,94,89,84,30.46,29.76,10,4,18,0.00
2013-12-23,14.3,10.3,4.7,11.2,5.8,0.7,88,82,75,30.74,30.45,6,1,14,0.00
2013-12-24,26.9,15.8,2.1,24.6,11.6,-1.8,91,83,73,30.72,30.34,8,2,15,0.00
2013-12-25,38.7,32.0,27.0,32.1,28.1,24.7,93,86,71,30.41,30.32,9,2,18,0.17
2013-12-26,45.6,34.7,24.7,35.1,29.1,21.5,91,80,63,30.40,30.25,11,3,21,0.14
2013-12-27,51.9,38.9,28.3,39.7,33.1,25.9,93,80,59,30.40,30.24,5,2,15,0.02
2013-12-28,52.9,42.7,35.6,37.0,33.3,30.3,83,70,50,30.24,29.93,10,4,21,0.02
2013-12-29,40.0,21.4,12.1,32.0,13.3,2.4,85,71,54,30.42,29.95,17,9,30,0.00
2013-12-30,27.8,18.8,10.1,16.5,7.7,-0.1,72,62,49,30.43,30.27,8,2,16,0.00
2013-12-31,48.6,33.8,19.8,31.7,23.7,15.6,85,67,50,30.41,30.14,11,3,20,0.00